Terminal Aerodrome Forecast
Issued by NWS

Home | Current Version | Previous Version | Text Only | Print | Product List | Glossary On
Versions: 1 2 3 4 5 6 7 8 9 10 11 12 13 14 15 16 17 18 19 20 21
000
FTUS43 KDMX 292335
TAFOTM
TAF
KOTM 292335Z 3000/3024 34008KT P6SM BKN018 OVC025
      TEMPO 3000/3002 SCT018
     FM300500 VRB03KT P6SM SCT006 OVC010
     FM301400 34003KT P6SM SCT010 OVC020
     FM301800 03004KT P6SM SCT030 BKN050=

USA.gov is the U.S. government's official web portal to all federal, state and local government web resources and services.